createdAt,value
2022-07-26T00:04:54.867Z,96.08
2022-07-26T00:10:03.276Z,97.38
2022-07-26T00:15:35.473Z,97.12
2022-07-26T00:21:08.995Z,97.30
2022-07-26T00:26:43.321Z,97.54
2022-07-26T00:32:15.818Z,97.76
2022-07-26T00:38:13.368Z,96.82
2022-07-26T00:43:56.459Z,97.32
2022-07-26T00:49:03.575Z,96.46
2022-07-26T00:54:41.255Z,96.43
2022-07-26T01:00:16.947Z,96.61
2022-07-26T01:05:26.274Z,96.32
2022-07-26T01:11:24.483Z,95.79
2022-07-26T01:16:31.756Z,95.50
2022-07-26T01:21:40.906Z,95.13
2022-07-26T01:26:48.506Z,95.06
2022-07-26T01:31:58.393Z,96.44
2022-07-26T01:37:08.468Z,96.45
2022-07-26T01:42:16.446Z,96.32
2022-07-26T01:47:25.780Z,96.12
2022-07-26T01:52:36.106Z,96.38
2022-07-26T01:57:43.289Z,95.87
2022-07-26T02:02:50.687Z,96.67
2022-07-26T02:08:00.104Z,97.57
2022-07-26T02:13:07.816Z,96.73
2022-07-26T02:18:35.867Z,96.16
2022-07-26T02:24:10.594Z,96.70
2022-07-26T02:29:18.107Z,96.22
2022-07-26T02:34:25.619Z,97.19
2022-07-26T02:39:59.033Z,97.57
2022-07-26T02:45:06.612Z,97.08
2022-07-26T02:50:13.768Z,97.85
2022-07-26T02:55:24.843Z,97.70
2022-07-26T03:00:56.692Z,99.01
2022-07-26T03:06:28.526Z,97.94
2022-07-26T03:11:38.448Z,99.26
2022-07-26T03:16:45.961Z,100.00
2022-07-26T03:21:56.854Z,100.00
2022-07-26T03:27:32.996Z,100.00
2022-07-26T03:32:40.020Z,100.00
2022-07-26T03:37:51.419Z,100.00
2022-07-26T03:43:05.068Z,100.00
2022-07-26T03:48:11.832Z,100.00
2022-07-26T03:53:44.792Z,100.00
2022-07-26T03:59:18.271Z,100.00
2022-07-26T04:05:14.313Z,100.00
2022-07-26T04:10:48.386Z,100.00
2022-07-26T04:16:20.684Z,100.00
2022-07-26T04:21:28.033Z,100.00
2022-07-26T04:26:59.995Z,100.00
2022-07-26T04:32:33.034Z,100.00
2022-07-26T04:38:05.556Z,100.00
2022-07-26T04:43:15.692Z,100.00
2022-07-26T04:48:25.062Z,100.00
2022-07-26T04:53:32.090Z,100.00
2022-07-26T04:59:03.823Z,98.90
2022-07-26T05:05:25.907Z,100.00
2022-07-26T05:10:37.351Z,100.00
2022-07-26T05:16:44.213Z,100.00
2022-07-26T05:22:17.155Z,100.00
2022-07-26T05:27:50.712Z,100.00
2022-07-26T05:32:58.097Z,100.00
2022-07-26T05:38:54.258Z,100.00
2022-07-26T05:44:27.454Z,100.00
2022-07-26T05:50:08.641Z,100.00
2022-07-26T05:55:21.179Z,100.00
2022-07-26T06:00:54.300Z,100.00
2022-07-26T06:06:01.813Z,100.00
2022-07-26T06:11:58.039Z,100.00
2022-07-26T06:17:31.388Z,100.00
2022-07-26T06:23:04.053Z,99.34
2022-07-26T06:28:12.786Z,100.00
2022-07-26T06:33:21.014Z,99.03
2022-07-26T06:38:28.019Z,98.78
2022-07-26T06:44:00.826Z,97.27
2022-07-26T06:49:09.385Z,99.02
2022-07-26T06:54:16.232Z,99.76
2022-07-26T06:59:26.837Z,100.00
2022-07-26T07:05:02.131Z,99.45
2022-07-26T07:10:12.638Z,99.78
2022-07-26T07:15:19.758Z,100.00
2022-07-26T07:20:30.100Z,100.00
2022-07-26T07:26:07.132Z,100.00
2022-07-26T07:31:14.635Z,100.00
2022-07-26T07:36:48.784Z,100.00
2022-07-26T07:41:55.895Z,100.00
2022-07-26T07:47:03.375Z,99.49
2022-07-26T07:52:36.386Z,99.56
2022-07-26T07:58:07.943Z,100.00
2022-07-26T08:03:40.408Z,100.00
2022-07-26T08:08:49.407Z,100.00
2022-07-26T08:14:23.013Z,100.00
2022-07-26T08:19:41.965Z,100.00
2022-07-26T08:24:50.909Z,98.44
2022-07-26T08:29:57.806Z,96.99
2022-07-26T08:35:31.136Z,94.69
2022-07-26T08:40:39.992Z,96.01
2022-07-26T08:45:48.054Z,97.20
2022-07-26T08:50:55.929Z,98.24
2022-07-26T08:56:07.204Z,98.52
2022-07-26T09:01:15.329Z,99.61
2022-07-26T09:06:28.124Z,99.59
2022-07-26T09:11:36.877Z,100.00
2022-07-26T09:17:08.634Z,99.24
2022-07-26T09:22:41.369Z,98.15
2022-07-26T09:28:26.149Z,97.75
2022-07-26T09:33:59.428Z,99.34
2022-07-26T09:39:07.154Z,100.00
2022-07-26T09:44:47.782Z,99.38
2022-07-26T09:50:17.072Z,99.69
2022-07-26T09:55:29.206Z,99.65
2022-07-26T10:00:43.354Z,99.64
2022-07-26T10:05:51.773Z,98.28
2022-07-26T10:11:23.351Z,94.75
2022-07-26T10:16:56.642Z,93.16
2022-07-26T10:22:34.395Z,89.51
2022-07-26T10:28:12.051Z,90.21
2022-07-26T10:33:27.152Z,91.11
2022-07-26T10:39:12.091Z,89.71
2022-07-26T10:44:46.613Z,89.44
2022-07-26T10:50:00.678Z,89.70
2022-07-26T10:56:01.828Z,90.31
2022-07-26T11:01:37.294Z,89.23
2022-07-26T11:06:49.609Z,89.43
2022-07-26T11:11:57.225Z,89.71
2022-07-26T11:17:04.339Z,88.78
2022-07-26T11:22:37.560Z,88.30
2022-07-26T11:28:09.702Z,88.93
2022-07-26T11:33:44.367Z,89.21
2022-07-26T11:38:56.544Z,89.40
2022-07-26T11:44:18.630Z,89.27
2022-07-26T11:49:59.871Z,89.23
2022-07-26T11:55:32.129Z,90.87
2022-07-26T12:00:40.139Z,92.69
2022-07-26T12:06:05.994Z,93.32
2022-07-26T12:11:16.355Z,93.17
2022-07-26T12:16:49.430Z,95.68
2022-07-26T12:21:59.423Z,95.91
2022-07-26T12:27:48.125Z,96.06
2022-07-26T12:33:02.679Z,99.94
2022-07-26T12:38:11.812Z,98.82
2022-07-26T12:43:49.828Z,99.70
2022-07-26T12:49:00.166Z,98.54
2022-07-26T12:54:37.406Z,97.09
2022-07-26T12:59:46.744Z,98.44
2022-07-26T13:05:00.671Z,99.37
2022-07-26T13:10:35.085Z,98.09
2022-07-26T13:15:51.489Z,100.00
2022-07-26T13:21:00.109Z,100.00
2022-07-26T13:26:31.657Z,98.93
2022-07-26T13:32:05.481Z,100.00
2022-07-26T13:37:16.568Z,100.00
2022-07-26T13:42:51.830Z,100.00
2022-07-26T13:48:00.596Z,100.00
2022-07-26T13:53:32.968Z,100.00
2022-07-26T13:59:04.650Z,100.00
2022-07-26T14:04:15.899Z,100.00
2022-07-26T14:09:23.656Z,100.00
2022-07-26T14:15:00.334Z,98.31
2022-07-26T14:20:10.512Z,100.00
2022-07-26T14:25:22.880Z,99.21
2022-07-26T14:30:36.023Z,99.26
2022-07-26T14:35:50.158Z,98.57
2022-07-26T14:41:21.435Z,100.00
2022-07-26T14:46:52.640Z,100.00
2022-07-26T14:52:25.423Z,100.00
2022-07-26T14:57:57.222Z,100.00
2022-07-26T15:03:07.188Z,99.42
2022-07-26T15:08:15.916Z,99.47
2022-07-26T15:13:24.664Z,98.87
2022-07-26T15:18:31.196Z,98.77
2022-07-26T15:23:42.491Z,99.95
2022-07-26T15:29:14.735Z,98.82
2022-07-26T15:34:46.837Z,99.81
2022-07-26T15:40:21.487Z,100.00
2022-07-26T15:45:55.500Z,99.77
2022-07-26T15:51:03.572Z,100.00
2022-07-26T15:56:14.001Z,100.00
2022-07-26T16:01:21.083Z,100.00
2022-07-26T16:06:52.760Z,100.00
2022-07-26T16:12:26.068Z,100.00
2022-07-26T16:18:01.732Z,100.00
2022-07-26T16:23:36.008Z,100.00
2022-07-26T16:28:44.240Z,100.00
2022-07-26T16:33:51.307Z,100.00
2022-07-26T16:39:00.435Z,100.00
2022-07-26T16:44:33.365Z,100.00
2022-07-26T16:49:46.685Z,100.00
2022-07-26T16:54:53.520Z,100.00
2022-07-26T17:00:04.896Z,100.00
2022-07-26T17:05:36.874Z,100.00
2022-07-26T17:11:09.096Z,100.00
2022-07-26T17:16:24.432Z,100.00
2022-07-26T17:21:32.353Z,100.00
2022-07-26T17:27:07.246Z,100.00
2022-07-26T17:33:04.977Z,100.00
2022-07-26T17:38:16.588Z,100.00
2022-07-26T17:43:49.304Z,100.00
2022-07-26T17:48:57.599Z,100.00
2022-07-26T17:54:08.307Z,100.00
2022-07-26T17:59:39.867Z,100.00
2022-07-26T18:05:13.493Z,100.00
2022-07-26T18:10:50.511Z,100.00
2022-07-26T18:16:02.874Z,100.00
2022-07-26T18:21:43.308Z,100.00
2022-07-26T18:27:15.168Z,100.00
2022-07-26T18:32:46.851Z,100.00
2022-07-26T18:37:56.007Z,100.00
2022-07-26T18:43:03.316Z,100.00
2022-07-26T18:48:10.707Z,100.00
2022-07-26T18:53:47.301Z,100.00
2022-07-26T18:59:19.196Z,100.00
2022-07-26T19:04:50.910Z,100.00
2022-07-26T19:09:59.830Z,100.00
2022-07-26T19:15:09.172Z,100.00
2022-07-26T19:20:16.666Z,100.00
2022-07-26T19:25:29.916Z,100.00
2022-07-26T19:30:38.856Z,100.00
2022-07-26T19:36:11.278Z,100.00
2022-07-26T19:41:24.373Z,100.00
2022-07-26T19:46:31.117Z,100.00
2022-07-26T19:51:38.460Z,100.00
2022-07-26T19:57:12.288Z,100.00
2022-07-26T20:02:19.817Z,100.00
2022-07-26T20:07:54.234Z,100.00
2022-07-26T20:13:02.994Z,100.00
2022-07-26T20:18:10.503Z,100.00
2022-07-26T20:23:21.150Z,100.00
2022-07-26T20:28:29.825Z,100.00
2022-07-26T20:33:37.624Z,100.00
2022-07-26T20:39:09.834Z,100.00
2022-07-26T20:44:20.445Z,100.00
2022-07-26T20:49:30.425Z,100.00
2022-07-26T20:54:37.676Z,100.00
2022-07-26T21:00:12.682Z,100.00
2022-07-26T21:05:20.128Z,100.00
2022-07-26T21:10:51.388Z,100.00
2022-07-26T21:16:00.189Z,100.00
2022-07-26T21:21:08.222Z,100.00
2022-07-26T21:26:40.542Z,100.00
2022-07-26T21:32:13.884Z,100.00
2022-07-26T21:38:09.990Z,100.00
2022-07-26T21:43:17.271Z,100.00
2022-07-26T21:48:29.938Z,100.00
2022-07-26T21:54:02.753Z,100.00
2022-07-26T21:59:34.635Z,100.00
2022-07-26T22:04:45.052Z,100.00
2022-07-26T22:09:55.766Z,100.00
2022-07-26T22:15:02.668Z,100.00
2022-07-26T22:20:13.844Z,100.00
2022-07-26T22:25:21.138Z,100.00
2022-07-26T22:30:52.787Z,100.00
2022-07-26T22:36:27.251Z,100.00
2022-07-26T22:41:46.166Z,100.00
2022-07-26T22:47:01.117Z,100.00
2022-07-26T22:52:34.223Z,100.00
2022-07-26T22:58:10.178Z,100.00
2022-07-26T23:03:22.450Z,100.00
2022-07-26T23:08:59.412Z,100.00
2022-07-26T23:14:31.705Z,100.00
2022-07-26T23:19:38.611Z,100.00
2022-07-26T23:25:12.282Z,100.00
2022-07-26T23:30:49.701Z,100.00
2022-07-26T23:36:21.417Z,100.00
2022-07-26T23:41:36.288Z,100.00
2022-07-26T23:46:43.350Z,100.00
2022-07-26T23:51:55.693Z,100.00
2022-07-26T23:57:29.597Z,100.00
